sensor_id;sensor_type;location;lat;lon;timestamp;pressure;altitude;pressure_sealevel;temperature;humidity
41218;BME280;26950;50.960;7.138;2023-06-22T00:01:08;100714.69;;;28.55;39.40
41218;BME280;26950;50.960;7.138;2023-06-22T00:03:35;100708.59;;;28.30;40.04
41218;BME280;26950;50.960;7.138;2023-06-22T00:06:01;100716.97;;;28.64;39.69
41218;BME280;26950;50.960;7.138;2023-06-22T00:08:28;100712.81;;;28.76;39.09
41218;BME280;26950;50.960;7.138;2023-06-22T00:10:54;100721.88;;;28.75;39.45
41218;BME280;26950;50.960;7.138;2023-06-22T00:13:21;100725.22;;;28.61;39.93
41218;BME280;26950;50.960;7.138;2023-06-22T00:15:47;100713.91;;;28.92;39.33
41218;BME280;26950;50.960;7.138;2023-06-22T00:18:15;100725.66;;;28.71;39.81
41218;BME280;26950;50.960;7.138;2023-06-22T00:20:42;100731.56;;;28.40;40.69
41218;BME280;26950;50.960;7.138;2023-06-22T00:23:11;100731.50;;;28.62;40.74
41218;BME280;26950;50.960;7.138;2023-06-22T00:25:39;100727.44;;;28.31;41.35
41218;BME280;26950;50.960;7.138;2023-06-22T00:28:06;100732.81;;;28.72;40.15
41218;BME280;26950;50.960;7.138;2023-06-22T00:30:33;100733.25;;;28.63;40.69
41218;BME280;26950;50.960;7.138;2023-06-22T00:33:00;100738.22;;;28.52;40.91
41218;BME280;26950;50.960;7.138;2023-06-22T00:35:28;100740.47;;;28.00;42.31
41218;BME280;26950;50.960;7.138;2023-06-22T00:37:55;100740.25;;;28.67;41.11
41218;BME280;26950;50.960;7.138;2023-06-22T00:40:26;100739.19;;;28.51;41.45
41218;BME280;26950;50.960;7.138;2023-06-22T00:42:53;100730.75;;;28.16;42.44
41218;BME280;26950;50.960;7.138;2023-06-22T00:45:20;100728.03;;;28.17;42.69
41218;BME280;26950;50.960;7.138;2023-06-22T00:47:47;100727.19;;;28.15;42.53
41218;BME280;26950;50.960;7.138;2023-06-22T00:50:17;100728.31;;;28.32;42.10
41218;BME280;26950;50.960;7.138;2023-06-22T00:52:48;100732.13;;;28.48;41.98
41218;BME280;26950;50.960;7.138;2023-06-22T00:55:17;100730.75;;;28.16;42.81
41218;BME280;26950;50.960;7.138;2023-06-22T00:57:45;100724.56;;;27.93;42.70
41218;BME280;26950;50.960;7.138;2023-06-22T01:00:12;100741.31;;;27.80;43.01
41218;BME280;26950;50.960;7.138;2023-06-22T01:02:43;100734.13;;;28.43;41.97
41218;BME280;26950;50.960;7.138;2023-06-22T01:05:12;100739.16;;;28.10;43.12
41218;BME280;26950;50.960;7.138;2023-06-22T01:07:42;100738.78;;;27.97;43.74
41218;BME280;26950;50.960;7.138;2023-06-22T01:10:16;100733.44;;;27.52;44.29
41218;BME280;26950;50.960;7.138;2023-06-22T01:12:49;100730.97;;;27.91;43.49
41218;BME280;26950;50.960;7.138;2023-06-22T01:15:21;100721.75;;;27.75;43.82
41218;BME280;26950;50.960;7.138;2023-06-22T01:17:49;100723.25;;;27.60;44.56
41218;BME280;26950;50.960;7.138;2023-06-22T01:20:19;100716.56;;;27.90;43.44
41218;BME280;26950;50.960;7.138;2023-06-22T01:22:57;100716.38;;;27.51;44.00
41218;BME280;26950;50.960;7.138;2023-06-22T01:25:33;100720.66;;;28.01;43.04
41218;BME280;26950;50.960;7.138;2023-06-22T01:28:07;100710.81;;;28.00;43.02
41218;BME280;26950;50.960;7.138;2023-06-22T01:30:42;100711.22;;;27.68;43.90
41218;BME280;26950;50.960;7.138;2023-06-22T01:33:13;100703.41;;;28.05;43.23
41218;BME280;26950;50.960;7.138;2023-06-22T01:35:40;100705.38;;;27.79;43.13
41218;BME280;26950;50.960;7.138;2023-06-22T01:38:08;100693.69;;;27.57;44.27
41218;BME280;26950;50.960;7.138;2023-06-22T01:40:36;100683.13;;;27.74;43.97
41218;BME280;26950;50.960;7.138;2023-06-22T01:43:03;100689.88;;;27.84;43.20
41218;BME280;26950;50.960;7.138;2023-06-22T01:45:30;100671.56;;;27.71;43.71
41218;BME280;26950;50.960;7.138;2023-06-22T01:47:58;100681.84;;;27.83;43.83
41218;BME280;26950;50.960;7.138;2023-06-22T01:50:26;100678.00;;;27.88;43.21
41218;BME280;26950;50.960;7.138;2023-06-22T01:52:52;100679.91;;;28.07;42.86
41218;BME280;26950;50.960;7.138;2023-06-22T01:55:19;100682.09;;;27.99;43.31
41218;BME280;26950;50.960;7.138;2023-06-22T01:57:45;100675.22;;;27.48;44.20
41218;BME280;26950;50.960;7.138;2023-06-22T02:00:15;100666.22;;;27.91;43.14
41218;BME280;26950;50.960;7.138;2023-06-22T02:02:48;100668.78;;;28.14;42.52
41218;BME280;26950;50.960;7.138;2023-06-22T02:05:19;100667.91;;;27.93;43.20
41218;BME280;26950;50.960;7.138;2023-06-22T02:07:51;100669.84;;;27.90;43.44
41218;BME280;26950;50.960;7.138;2023-06-22T02:10:20;100669.00;;;28.10;42.65
41218;BME280;26950;50.960;7.138;2023-06-22T02:12:48;100670.94;;;27.86;43.47
41218;BME280;26950;50.960;7.138;2023-06-22T02:15:16;100674.34;;;27.69;43.64
41218;BME280;26950;50.960;7.138;2023-06-22T02:17:43;100674.31;;;28.11;42.90
41218;BME280;26950;50.960;7.138;2023-06-22T02:20:12;100677.72;;;27.74;44.07
41218;BME280;26950;50.960;7.138;2023-06-22T02:22:40;100673.94;;;27.56;44.54
41218;BME280;26950;50.960;7.138;2023-06-22T02:25:07;100677.53;;;27.35;44.92
41218;BME280;26950;50.960;7.138;2023-06-22T02:27:34;100670.78;;;27.68;44.36
41218;BME280;26950;50.960;7.138;2023-06-22T02:30:00;100670.06;;;27.85;43.61
41218;BME280;26950;50.960;7.138;2023-06-22T02:32:30;100672.34;;;27.74;44.05
41218;BME280;26950;50.960;7.138;2023-06-22T02:34:59;100675.16;;;27.49;44.85
41218;BME280;26950;50.960;7.138;2023-06-22T02:37:29;100666.16;;;27.92;43.87
41218;BME280;26950;50.960;7.138;2023-06-22T02:39:57;100667.50;;;28.03;43.36
41218;BME280;26950;50.960;7.138;2023-06-22T02:42:23;100662.44;;;27.75;44.21
41218;BME280;26950;50.960;7.138;2023-06-22T02:44:50;100658.09;;;27.49;44.82
41218;BME280;26950;50.960;7.138;2023-06-22T02:47:16;100657.13;;;27.93;43.79
41218;BME280;26950;50.960;7.138;2023-06-22T02:49:43;100653.69;;;27.46;44.91
41218;BME280;26950;50.960;7.138;2023-06-22T02:52:10;100652.66;;;27.28;45.26
41218;BME280;26950;50.960;7.138;2023-06-22T02:54:36;100648.69;;;27.81;44.30
41218;BME280;26950;50.960;7.138;2023-06-22T02:57:04;100647.59;;;27.63;44.60
41218;BME280;26950;50.960;7.138;2023-06-22T02:59:31;100648.81;;;27.34;45.71
41218;BME280;26950;50.960;7.138;2023-06-22T03:01:57;100654.06;;;27.59;45.16
41218;BME280;26950;50.960;7.138;2023-06-22T03:04:24;100644.84;;;27.86;44.57
41218;BME280;26950;50.960;7.138;2023-06-22T03:06:50;100636.75;;;27.22;45.97
41218;BME280;26950;50.960;7.138;2023-06-22T03:09:19;100635.22;;;27.15;46.28
41218;BME280;26950;50.960;7.138;2023-06-22T03:11:46;100632.09;;;27.02;46.58
41218;BME280;26950;50.960;7.138;2023-06-22T03:14:14;100638.84;;;27.58;45.23
41218;BME280;26950;50.960;7.138;2023-06-22T03:16:40;100638.50;;;27.00;46.30
41218;BME280;26950;50.960;7.138;2023-06-22T03:19:07;100642.72;;;27.51;45.10
41218;BME280;26950;50.960;7.138;2023-06-22T03:21:33;100636.19;;;27.78;44.58
41218;BME280;26950;50.960;7.138;2023-06-22T03:24:00;100635.72;;;27.68;44.99
41218;BME280;26950;50.960;7.138;2023-06-22T03:26:26;100637.13;;;27.35;45.43
41218;BME280;26950;50.960;7.138;2023-06-22T03:28:53;100644.00;;;27.42;45.81
41218;BME280;26950;50.960;7.138;2023-06-22T03:31:20;100641.81;;;27.74;44.88
41218;BME280;26950;50.960;7.138;2023-06-22T03:33:47;100644.91;;;27.63;45.33
41218;BME280;26950;50.960;7.138;2023-06-22T03:36:14;100642.03;;;27.46;45.76
41218;BME280;26950;50.960;7.138;2023-06-22T03:38:46;100643.88;;;27.23;46.17
41218;BME280;26950;50.960;7.138;2023-06-22T03:41:12;100640.25;;;27.24;46.47
41218;BME280;26950;50.960;7.138;2023-06-22T03:43:39;100633.81;;;27.28;46.47
41218;BME280;26950;50.960;7.138;2023-06-22T03:46:05;100627.00;;;27.40;46.54
41218;BME280;26950;50.960;7.138;2023-06-22T03:48:33;100632.09;;;27.48;46.30
41218;BME280;26950;50.960;7.138;2023-06-22T03:51:01;100638.78;;;27.37;46.57
41218;BME280;26950;50.960;7.138;2023-06-22T03:53:29;100630.44;;;27.22;47.34
41218;BME280;26950;50.960;7.138;2023-06-22T03:55:55;100632.59;;;26.90;47.97
41218;BME280;26950;50.960;7.138;2023-06-22T03:58:22;100633.59;;;27.55;46.60
41218;BME280;26950;50.960;7.138;2023-06-22T04:00:50;100632.28;;;27.43;46.52
41218;BME280;26950;50.960;7.138;2023-06-22T04:03:17;100631.72;;;27.13;47.69
41218;BME280;26950;50.960;7.138;2023-06-22T04:05:46;100629.56;;;27.21;47.37
41218;BME280;26950;50.960;7.138;2023-06-22T04:08:13;100628.97;;;27.36;47.24
41218;BME280;26950;50.960;7.138;2023-06-22T04:10:40;100627.00;;;27.40;47.09
41218;BME280;26950;50.960;7.138;2023-06-22T04:13:07;100626.63;;;27.49;47.18
41218;BME280;26950;50.960;7.138;2023-06-22T04:15:33;100625.38;;;27.14;47.72
41218;BME280;26950;50.960;7.138;2023-06-22T04:18:00;100630.03;;;26.87;48.64
41218;BME280;26950;50.960;7.138;2023-06-22T04:20:26;100631.19;;;27.69;46.60
41218;BME280;26950;50.960;7.138;2023-06-22T04:22:54;100623.59;;;27.57;47.43
41218;BME280;26950;50.960;7.138;2023-06-22T04:25:22;100628.88;;;27.60;46.92
41218;BME280;26950;50.960;7.138;2023-06-22T04:27:48;100628.28;;;27.31;47.62
41218;BME280;26950;50.960;7.138;2023-06-22T04:30:15;100621.78;;;27.79;46.30
41218;BME280;26950;50.960;7.138;2023-06-22T04:32:45;100619.59;;;27.67;46.44
41218;BME280;26950;50.960;7.138;2023-06-22T04:35:22;100612.69;;;27.82;46.26
41218;BME280;26950;50.960;7.138;2023-06-22T04:37:49;100607.34;;;27.80;46.12
41218;BME280;26950;50.960;7.138;2023-06-22T04:40:21;100608.69;;;27.90;45.98
41218;BME280;26950;50.960;7.138;2023-06-22T04:42:48;100599.25;;;28.01;45.81
41218;BME280;26950;50.960;7.138;2023-06-22T04:45:18;100589.63;;;27.95;45.81
41218;BME280;26950;50.960;7.138;2023-06-22T04:47:44;100597.22;;;28.06;45.63
41218;BME280;26950;50.960;7.138;2023-06-22T04:50:11;100603.22;;;28.12;46.00
41218;BME280;26950;50.960;7.138;2023-06-22T04:52:37;100600.09;;;28.21;45.67
41218;BME280;26950;50.960;7.138;2023-06-22T04:55:05;100603.97;;;27.95;46.71
41218;BME280;26950;50.960;7.138;2023-06-22T04:57:33;100605.03;;;27.29;48.25
41218;BME280;26950;50.960;7.138;2023-06-22T05:00:00;100599.34;;;27.57;47.72
41218;BME280;26950;50.960;7.138;2023-06-22T05:02:38;100603.16;;;28.14;46.32
41218;BME280;26950;50.960;7.138;2023-06-22T05:05:05;100611.47;;;27.89;46.86
41218;BME280;26950;50.960;7.138;2023-06-22T05:07:32;100606.47;;;28.00;46.83
41218;BME280;26950;50.960;7.138;2023-06-22T05:10:01;100605.88;;;27.73;47.85
41218;BME280;26950;50.960;7.138;2023-06-22T05:12:29;100602.63;;;28.06;46.69
41218;BME280;26950;50.960;7.138;2023-06-22T05:14:57;100601.59;;;28.08;46.84
41218;BME280;26950;50.960;7.138;2023-06-22T05:17:24;100606.31;;;28.23;46.19
41218;BME280;26950;50.960;7.138;2023-06-22T05:19:51;100609.69;;;27.46;48.44
41218;BME280;26950;50.960;7.138;2023-06-22T05:22:17;100617.00;;;27.86;47.77
41218;BME280;26950;50.960;7.138;2023-06-22T05:24:44;100612.22;;;27.92;48.11
41218;BME280;26950;50.960;7.138;2023-06-22T05:27:11;100621.44;;;27.87;47.94
41218;BME280;26950;50.960;7.138;2023-06-22T05:29:37;100609.72;;;27.88;48.38
41218;BME280;26950;50.960;7.138;2023-06-22T05:32:06;100609.75;;;28.27;47.13
41218;BME280;26950;50.960;7.138;2023-06-22T05:34:33;100613.53;;;28.03;48.53
41218;BME280;26950;50.960;7.138;2023-06-22T05:36:59;100611.91;;;28.39;47.39
41218;BME280;26950;50.960;7.138;2023-06-22T05:39:25;100617.78;;;28.49;46.82
41218;BME280;26950;50.960;7.138;2023-06-22T05:41:52;100620.56;;;28.47;46.73
41218;BME280;26950;50.960;7.138;2023-06-22T05:44:18;100615.47;;;28.60;46.57
41218;BME280;26950;50.960;7.138;2023-06-22T05:46:45;100633.69;;;28.14;48.07
41218;BME280;26950;50.960;7.138;2023-06-22T05:49:15;100625.34;;;28.60;47.18
41218;BME280;26950;50.960;7.138;2023-06-22T05:51:42;100629.88;;;28.78;46.54
41218;BME280;26950;50.960;7.138;2023-06-22T05:54:08;100635.13;;;28.43;47.56
41218;BME280;26950;50.960;7.138;2023-06-22T05:56:35;100642.47;;;28.19;48.34
41218;BME280;26950;50.960;7.138;2023-06-22T05:59:01;100644.31;;;28.19;47.83
41218;BME280;26950;50.960;7.138;2023-06-22T06:01:28;100631.16;;;28.32;47.79
41218;BME280;26950;50.960;7.138;2023-06-22T06:03:59;100633.97;;;28.29;47.85
41218;BME280;26950;50.960;7.138;2023-06-22T06:06:27;100641.06;;;27.90;48.65
41218;BME280;26950;50.960;7.138;2023-06-22T06:08:54;100637.28;;;27.74;49.19
41218;BME280;26950;50.960;7.138;2023-06-22T06:11:21;100639.50;;;27.42;50.39
41218;BME280;26950;50.960;7.138;2023-06-22T06:13:47;100640.25;;;28.09;48.70
41218;BME280;26950;50.960;7.138;2023-06-22T06:16:14;100636.94;;;28.02;48.89
41218;BME280;26950;50.960;7.138;2023-06-22T06:18:40;100639.84;;;28.96;46.66
41218;BME280;26950;50.960;7.138;2023-06-22T06:21:07;100641.88;;;28.33;48.25
41218;BME280;26950;50.960;7.138;2023-06-22T06:23:34;100635.84;;;28.27;48.15
41218;BME280;26950;50.960;7.138;2023-06-22T06:26:01;100630.84;;;29.15;45.90
41218;BME280;26950;50.960;7.138;2023-06-22T06:28:32;100637.47;;;28.51;47.97
41218;BME280;26950;50.960;7.138;2023-06-22T06:30:58;100634.53;;;28.95;46.81
41218;BME280;26950;50.960;7.138;2023-06-22T06:33:25;100641.59;;;29.16;46.24
41218;BME280;26950;50.960;7.138;2023-06-22T06:35:51;100633.41;;;29.37;45.77
41218;BME280;26950;50.960;7.138;2023-06-22T06:38:18;100627.16;;;29.17;45.85
41218;BME280;26950;50.960;7.138;2023-06-22T06:40:45;100642.47;;;29.36;45.63
41218;BME280;26950;50.960;7.138;2023-06-22T06:43:14;100638.47;;;29.07;46.53
41218;BME280;26950;50.960;7.138;2023-06-22T06:45:40;100647.13;;;29.32;45.39
41218;BME280;26950;50.960;7.138;2023-06-22T06:48:07;100652.06;;;29.41;45.34
41218;BME280;26950;50.960;7.138;2023-06-22T06:50:34;100647.56;;;29.42;45.28
41218;BME280;26950;50.960;7.138;2023-06-22T06:53:00;100646.16;;;29.33;45.59
41218;BME280;26950;50.960;7.138;2023-06-22T06:55:27;100638.97;;;29.15;46.37
41218;BME280;26950;50.960;7.138;2023-06-22T06:57:55;100623.78;;;29.48;45.36
41218;BME280;26950;50.960;7.138;2023-06-22T07:00:21;100622.31;;;29.77;44.49
41218;BME280;26950;50.960;7.138;2023-06-22T07:02:48;100611.59;;;29.76;44.32
41218;BME280;26950;50.960;7.138;2023-06-22T07:05:14;100620.56;;;29.59;44.96
41218;BME280;26950;50.960;7.138;2023-06-22T07:07:41;100622.88;;;29.31;46.14
41218;BME280;26950;50.960;7.138;2023-06-22T07:10:08;100616.75;;;28.89;46.65
41218;BME280;26950;50.960;7.138;2023-06-22T07:12:35;100608.16;;;28.23;48.45
41218;BME280;26950;50.960;7.138;2023-06-22T07:15:05;100603.44;;;29.22;46.19
41218;BME280;26950;50.960;7.138;2023-06-22T07:17:33;100601.50;;;29.79;45.04
41218;BME280;26950;50.960;7.138;2023-06-22T07:20:00;100589.75;;;29.96;44.71
41218;BME280;26950;50.960;7.138;2023-06-22T07:22:27;100595.16;;;30.31;43.84
41218;BME280;26950;50.960;7.138;2023-06-22T07:24:53;100595.03;;;30.66;43.28
41218;BME280;26950;50.960;7.138;2023-06-22T07:27:20;100602.34;;;30.15;44.70
41218;BME280;26950;50.960;7.138;2023-06-22T07:29:46;100598.94;;;30.60;43.26
41218;BME280;26950;50.960;7.138;2023-06-22T07:32:14;100598.56;;;30.83;42.99
41218;BME280;26950;50.960;7.138;2023-06-22T07:34:41;100599.16;;;31.04;42.89
41218;BME280;26950;50.960;7.138;2023-06-22T07:37:08;100595.84;;;31.77;40.81
41218;BME280;26950;50.960;7.138;2023-06-22T07:39:35;100582.81;;;31.98;40.70
41218;BME280;26950;50.960;7.138;2023-06-22T07:42:03;100574.50;;;31.71;40.49
41218;BME280;26950;50.960;7.138;2023-06-22T07:44:30;100570.94;;;31.08;42.41
41218;BME280;26950;50.960;7.138;2023-06-22T07:46:56;100576.63;;;31.20;42.28
41218;BME280;26950;50.960;7.138;2023-06-22T07:49:24;100573.41;;;30.81;42.96
41218;BME280;26950;50.960;7.138;2023-06-22T07:51:50;100569.72;;;31.14;42.37
41218;BME280;26950;50.960;7.138;2023-06-22T07:54:17;100571.91;;;30.92;42.54
41218;BME280;26950;50.960;7.138;2023-06-22T07:56:43;100559.91;;;31.43;41.60
41218;BME280;26950;50.960;7.138;2023-06-22T07:59:10;100560.25;;;31.37;41.63
41218;BME280;26950;50.960;7.138;2023-06-22T08:01:36;100548.56;;;30.73;43.25
41218;BME280;26950;50.960;7.138;2023-06-22T08:04:03;100534.00;;;31.22;42.35
41218;BME280;26950;50.960;7.138;2023-06-22T08:06:32;100535.97;;;31.80;41.35
41218;BME280;26950;50.960;7.138;2023-06-22T08:08:58;100542.69;;;31.58;41.63
41218;BME280;26950;50.960;7.138;2023-06-22T08:11:25;100538.97;;;31.45;42.02
41218;BME280;26950;50.960;7.138;2023-06-22T08:13:52;100541.38;;;31.04;42.64
41218;BME280;26950;50.960;7.138;2023-06-22T08:16:20;100545.03;;;31.34;41.80
41218;BME280;26950;50.960;7.138;2023-06-22T08:18:47;100536.00;;;30.88;42.54
41218;BME280;26950;50.960;7.138;2023-06-22T08:21:13;100535.38;;;31.45;41.82
41218;BME280;26950;50.960;7.138;2023-06-22T08:23:42;100531.50;;;31.79;40.46
41218;BME280;26950;50.960;7.138;2023-06-22T08:26:08;100524.66;;;31.57;41.29
41218;BME280;26950;50.960;7.138;2023-06-22T08:28:35;100510.00;;;32.04;40.64
41218;BME280;26950;50.960;7.138;2023-06-22T08:31:02;100508.19;;;32.19;40.10
41218;BME280;26950;50.960;7.138;2023-06-22T08:33:28;100513.97;;;31.99;40.49
41218;BME280;26950;50.960;7.138;2023-06-22T08:35:57;100503.97;;;31.40;42.11
41218;BME280;26950;50.960;7.138;2023-06-22T08:38:24;100492.16;;;32.14;40.98
41218;BME280;26950;50.960;7.138;2023-06-22T08:40:52;100496.19;;;32.64;40.07
41218;BME280;26950;50.960;7.138;2023-06-22T08:43:18;100481.91;;;32.34;40.21
41218;BME280;26950;50.960;7.138;2023-06-22T08:45:45;100492.94;;;32.45;40.12
41218;BME280;26950;50.960;7.138;2023-06-22T08:48:11;100492.00;;;31.89;41.31
41218;BME280;26950;50.960;7.138;2023-06-22T08:50:38;100490.22;;;32.45;40.29
41218;BME280;26950;50.960;7.138;2023-06-22T08:53:05;100477.75;;;32.69;39.76
41218;BME280;26950;50.960;7.138;2023-06-22T08:55:33;100485.91;;;32.69;40.00
41218;BME280;26950;50.960;7.138;2023-06-22T08:58:01;100481.34;;;32.56;40.02
41218;BME280;26950;50.960;7.138;2023-06-22T09:00:28;100464.81;;;32.46;39.84
41218;BME280;26950;50.960;7.138;2023-06-22T09:02:58;100473.31;;;32.54;39.48
41218;BME280;26950;50.960;7.138;2023-06-22T09:05:24;100466.06;;;32.82;39.26
41218;BME280;26950;50.960;7.138;2023-06-22T09:07:51;100466.66;;;32.17;40.49
41218;BME280;26950;50.960;7.138;2023-06-22T09:10:19;100464.69;;;32.47;39.70
41218;BME280;26950;50.960;7.138;2023-06-22T09:12:46;100454.59;;;32.91;38.82
41218;BME280;26950;50.960;7.138;2023-06-22T09:15:14;100448.16;;;31.95;40.74
41218;BME280;26950;50.960;7.138;2023-06-22T09:17:41;100438.81;;;32.42;39.62
41218;BME280;26950;50.960;7.138;2023-06-22T09:20:08;100437.72;;;31.89;40.34
41218;BME280;26950;50.960;7.138;2023-06-22T09:22:36;100433.41;;;31.99;40.58
41218;BME280;26950;50.960;7.138;2023-06-22T09:25:03;100428.72;;;32.30;39.91
41218;BME280;26950;50.960;7.138;2023-06-22T09:27:29;100438.16;;;32.65;39.16
41218;BME280;26950;50.960;7.138;2023-06-22T09:29:56;100430.97;;;32.64;39.60
41218;BME280;26950;50.960;7.138;2023-06-22T09:32:25;100423.28;;;32.30;39.96
41218;BME280;26950;50.960;7.138;2023-06-22T09:34:51;100419.75;;;31.72;40.77
41218;BME280;26950;50.960;7.138;2023-06-22T09:37:18;100412.91;;;31.81;40.70
41218;BME280;26950;50.960;7.138;2023-06-22T09:39:45;100413.47;;;32.00;40.61
41218;BME280;26950;50.960;7.138;2023-06-22T09:42:11;100403.81;;;32.23;40.39
41218;BME280;26950;50.960;7.138;2023-06-22T09:44:38;100398.97;;;32.55;39.62
41218;BME280;26950;50.960;7.138;2023-06-22T09:47:06;100392.13;;;32.49;39.56
41218;BME280;26950;50.960;7.138;2023-06-22T09:49:34;100386.56;;;32.38;40.03
41218;BME280;26950;50.960;7.138;2023-06-22T09:52:00;100396.22;;;32.28;40.42
41218;BME280;26950;50.960;7.138;2023-06-22T09:54:27;100396.59;;;32.51;40.12
41218;BME280;26950;50.960;7.138;2023-06-22T09:56:53;100400.97;;;31.83;41.06
41218;BME280;26950;50.960;7.138;2023-06-22T09:59:19;100390.06;;;32.12;41.16
41218;BME280;26950;50.960;7.138;2023-06-22T10:01:46;100389.09;;;32.54;40.38
41218;BME280;26950;50.960;7.138;2023-06-22T10:04:12;100382.63;;;32.69;40.00
41218;BME280;26950;50.960;7.138;2023-06-22T10:06:40;100392.16;;;32.35;40.51
41218;BME280;26950;50.960;7.138;2023-06-22T10:09:07;100398.72;;;32.04;41.09
41218;BME280;26950;50.960;7.138;2023-06-22T10:11:34;100405.50;;;31.97;41.48
41218;BME280;26950;50.960;7.138;2023-06-22T10:14:00;100398.38;;;31.82;41.52
41218;BME280;26950;50.960;7.138;2023-06-22T10:16:30;100402.34;;;32.32;40.59
41218;BME280;26950;50.960;7.138;2023-06-22T10:18:57;100411.63;;;32.01;41.63
41218;BME280;26950;50.960;7.138;2023-06-22T10:21:24;100419.75;;;31.44;43.22
41218;BME280;26950;50.960;7.138;2023-06-22T10:23:53;100429.03;;;30.63;44.96
41218;BME280;26950;50.960;7.138;2023-06-22T10:26:20;100433.25;;;31.29;43.32
41218;BME280;26950;50.960;7.138;2023-06-22T10:28:46;100446.03;;;31.27;43.23
41218;BME280;26950;50.960;7.138;2023-06-22T10:31:13;100454.41;;;31.67;41.88
41218;BME280;26950;50.960;7.138;2023-06-22T10:33:40;100467.03;;;31.24;43.27
41218;BME280;26950;50.960;7.138;2023-06-22T10:36:08;100462.81;;;31.48;43.75
41218;BME280;26950;50.960;7.138;2023-06-22T10:38:34;100472.38;;;31.25;45.52
41218;BME280;26950;50.960;7.138;2023-06-22T10:41:02;100488.41;;;30.98;46.54
41218;BME280;26950;50.960;7.138;2023-06-22T10:43:29;100495.75;;;31.12;47.34
41218;BME280;26950;50.960;7.138;2023-06-22T10:45:55;100499.78;;;30.57;49.34
41218;BME280;26950;50.960;7.138;2023-06-22T10:48:22;100501.03;;;30.36;49.72
41218;BME280;26950;50.960;7.138;2023-06-22T10:50:48;100502.41;;;31.06;48.42
41218;BME280;26950;50.960;7.138;2023-06-22T10:53:14;100494.31;;;30.75;49.86
41218;BME280;26950;50.960;7.138;2023-06-22T10:55:41;100492.78;;;30.22;52.88
41218;BME280;26950;50.960;7.138;2023-06-22T10:58:09;100484.03;;;30.17;53.89
41218;BME280;26950;50.960;7.138;2023-06-22T11:00:35;100486.69;;;30.34;53.72
41218;BME280;26950;50.960;7.138;2023-06-22T11:03:02;100485.63;;;30.52;53.72
41218;BME280;26950;50.960;7.138;2023-06-22T11:05:28;100489.47;;;29.66;57.80
41218;BME280;26950;50.960;7.138;2023-06-22T11:07:55;100497.53;;;29.68;57.94
41218;BME280;26950;50.960;7.138;2023-06-22T11:10:21;100510.06;;;30.35;56.16
41218;BME280;26950;50.960;7.138;2023-06-22T11:12:48;100536.53;;;30.14;56.98
41218;BME280;26950;50.960;7.138;2023-06-22T11:15:16;100548.16;;;29.81;58.43
41218;BME280;26950;50.960;7.138;2023-06-22T11:17:42;100556.66;;;29.39;58.51
41218;BME280;26950;50.960;7.138;2023-06-22T11:20:10;100543.19;;;29.74;57.29
41218;BME280;26950;50.960;7.138;2023-06-22T11:22:37;100521.44;;;29.75;57.17
41218;BME280;26950;50.960;7.138;2023-06-22T11:25:05;100498.78;;;29.26;58.27
41218;BME280;26950;50.960;7.138;2023-06-22T11:27:32;100502.03;;;29.33;59.03
41218;BME280;26950;50.960;7.138;2023-06-22T11:29:58;100502.22;;;29.29;59.46
41218;BME280;26950;50.960;7.138;2023-06-22T11:32:26;100494.84;;;28.97;60.61
41218;BME280;26950;50.960;7.138;2023-06-22T11:34:53;100445.03;;;29.20;59.66
41218;BME280;26950;50.960;7.138;2023-06-22T11:37:19;100415.59;;;28.79;62.01
41218;BME280;26950;50.960;7.138;2023-06-22T11:39:46;100398.88;;;29.07;61.52
41218;BME280;26950;50.960;7.138;2023-06-22T11:42:12;100399.50;;;29.12;61.78
41218;BME280;26950;50.960;7.138;2023-06-22T11:44:39;100390.44;;;28.96;62.08
41218;BME280;26950;50.960;7.138;2023-06-22T11:47:05;100360.72;;;29.13;61.12
41218;BME280;26950;50.960;7.138;2023-06-22T11:49:33;100349.69;;;29.00;62.03
41218;BME280;26950;50.960;7.138;2023-06-22T11:52:00;100343.44;;;29.16;61.55
41218;BME280;26950;50.960;7.138;2023-06-22T11:54:26;100346.47;;;29.10;62.33
41218;BME280;26950;50.960;7.138;2023-06-22T11:56:53;100353.22;;;29.69;60.94
41218;BME280;26950;50.960;7.138;2023-06-22T11:59:19;100352.38;;;29.18;61.89
41218;BME280;26950;50.960;7.138;2023-06-22T12:01:47;100352.78;;;29.61;60.55
41218;BME280;26950;50.960;7.138;2023-06-22T12:04:15;100361.00;;;29.91;59.69
41218;BME280;26950;50.960;7.138;2023-06-22T12:06:43;100372.53;;;30.10;58.97
41218;BME280;26950;50.960;7.138;2023-06-22T12:09:10;100372.72;;;30.39;59.26
41218;BME280;26950;50.960;7.138;2023-06-22T12:11:38;100372.19;;;30.00;57.59
41218;BME280;26950;50.960;7.138;2023-06-22T12:14:05;100359.94;;;29.44;58.53
41218;BME280;26950;50.960;7.138;2023-06-22T12:16:31;100365.13;;;30.14;57.58
41218;BME280;26950;50.960;7.138;2023-06-22T12:18:58;100359.84;;;29.79;58.89
41218;BME280;26950;50.960;7.138;2023-06-22T12:21:24;100353.28;;;29.34;60.01
41218;BME280;26950;50.960;7.138;2023-06-22T12:23:52;100340.88;;;30.12;57.14
41218;BME280;26950;50.960;7.138;2023-06-22T12:26:19;100331.41;;;29.88;58.17
41218;BME280;26950;50.960;7.138;2023-06-22T12:28:45;100323.56;;;29.83;57.92
41218;BME280;26950;50.960;7.138;2023-06-22T12:31:12;100319.38;;;29.77;58.33
41218;BME280;26950;50.960;7.138;2023-06-22T12:33:39;100322.06;;;29.62;59.42
41218;BME280;26950;50.960;7.138;2023-06-22T12:36:06;100318.22;;;29.33;60.42
41218;BME280;26950;50.960;7.138;2023-06-22T12:38:33;100302.22;;;29.45;59.66
41218;BME280;26950;50.960;7.138;2023-06-22T12:41:00;100282.97;;;29.83;58.44
41218;BME280;26950;50.960;7.138;2023-06-22T12:43:27;100288.28;;;30.00;59.51
41218;BME280;26950;50.960;7.138;2023-06-22T12:45:54;100284.00;;;30.28;58.07
41218;BME280;26950;50.960;7.138;2023-06-22T12:48:21;100284.81;;;30.30;56.98
41218;BME280;26950;50.960;7.138;2023-06-22T12:50:48;100290.66;;;29.75;59.79